sensor_id;sensor_type;location;lat;lon;timestamp;pressure;altitude;pressure_sealevel;temperature;humidity
14293;BME280;62290;59.420;17.842;2022-12-29T00:02:27;99822.59;;;26.29;19.85
14293;BME280;62290;59.420;17.842;2022-12-29T00:04:55;99822.78;;;26.28;20.03
14293;BME280;62290;59.420;17.842;2022-12-29T00:07:23;99818.53;;;26.25;20.24
14293;BME280;62290;59.420;17.842;2022-12-29T00:09:51;99831.72;;;26.20;20.37
14293;BME280;62290;59.420;17.842;2022-12-29T00:12:19;99822.09;;;26.18;20.00
14293;BME280;62290;59.420;17.842;2022-12-29T00:14:48;99822.94;;;26.18;20.15
14293;BME280;62290;59.420;17.842;2022-12-29T00:17:34;99821.59;;;26.06;20.21
14293;BME280;62290;59.420;17.842;2022-12-29T00:20:02;99822.59;;;26.05;20.36
14293;BME280;62290;59.420;17.842;2022-12-29T00:22:50;99824.13;;;26.00;20.48
14293;BME280;62290;59.420;17.842;2022-12-29T00:25:36;99815.53;;;25.88;20.38
14293;BME280;62290;59.420;17.842;2022-12-29T00:28:21;99828.00;;;25.89;20.67
14293;BME280;62290;59.420;17.842;2022-12-29T00:31:11;99821.78;;;25.89;20.63
14293;BME280;62290;59.420;17.842;2022-12-29T00:33:58;99805.75;;;25.79;20.28
14293;BME280;62290;59.420;17.842;2022-12-29T00:36:43;99815.34;;;25.90;20.68
14293;BME280;62290;59.420;17.842;2022-12-29T00:39:13;99810.16;;;25.88;20.34
14293;BME280;62290;59.420;17.842;2022-12-29T00:42:03;99803.56;;;25.83;20.89
14293;BME280;62290;59.420;17.842;2022-12-29T00:44:48;99801.72;;;25.83;20.92
14293;BME280;62290;59.420;17.842;2022-12-29T00:47:17;99783.31;;;25.78;20.69
14293;BME280;62290;59.420;17.842;2022-12-29T00:49:46;99796.66;;;25.88;21.07
14293;BME280;62290;59.420;17.842;2022-12-29T00:52:13;99776.25;;;25.77;21.13
14293;BME280;62290;59.420;17.842;2022-12-29T00:54:44;99792.25;;;25.87;20.72
14293;BME280;62290;59.420;17.842;2022-12-29T00:57:12;99793.63;;;25.83;21.13
14293;BME280;62290;59.420;17.842;2022-12-29T00:59:41;99795.81;;;25.80;21.11
14293;BME280;62290;59.420;17.842;2022-12-29T01:02:10;99792.25;;;25.79;20.83
14293;BME280;62290;59.420;17.842;2022-12-29T01:04:40;99785.84;;;25.80;20.78
14293;BME280;62290;59.420;17.842;2022-12-29T01:07:08;99787.19;;;25.76;20.92
14293;BME280;62290;59.420;17.842;2022-12-29T01:09:36;99789.06;;;25.75;21.04
14293;BME280;62290;59.420;17.842;2022-12-29T01:12:22;99790.75;;;25.76;21.34
14293;BME280;62290;59.420;17.842;2022-12-29T01:15:05;99789.41;;;25.81;20.93
14293;BME280;62290;59.420;17.842;2022-12-29T01:17:33;99779.78;;;25.86;21.11
14293;BME280;62290;59.420;17.842;2022-12-29T01:20:03;99780.94;;;25.92;21.23
14293;BME280;62290;59.420;17.842;2022-12-29T01:22:31;99776.22;;;25.94;21.19
14293;BME280;62290;59.420;17.842;2022-12-29T01:24:59;99776.91;;;25.96;21.22
14293;BME280;62290;59.420;17.842;2022-12-29T01:27:27;99771.50;;;25.96;20.65
14293;BME280;62290;59.420;17.842;2022-12-29T01:29:55;99777.75;;;25.96;21.20
14293;BME280;62290;59.420;17.842;2022-12-29T01:32:23;99717.91;;;25.60;21.17
14293;BME280;62290;59.420;17.842;2022-12-29T01:34:51;99774.84;;;25.98;20.78
14293;BME280;62290;59.420;17.842;2022-12-29T01:37:21;99766.09;;;26.04;21.08
14293;BME280;62290;59.420;17.842;2022-12-29T01:39:49;99737.94;;;25.90;20.73
14293;BME280;62290;59.420;17.842;2022-12-29T01:42:19;99752.41;;;25.97;20.74
14293;BME280;62290;59.420;17.842;2022-12-29T01:44:50;99747.34;;;25.94;21.23
14293;BME280;62290;59.420;17.842;2022-12-29T01:47:25;99736.09;;;25.91;20.75
14293;BME280;62290;59.420;17.842;2022-12-29T01:49:56;99736.22;;;25.89;20.80
14293;BME280;62290;59.420;17.842;2022-12-29T01:52:28;99736.56;;;25.94;21.21
14293;BME280;62290;59.420;17.842;2022-12-29T01:54:58;99728.31;;;25.88;20.88
14293;BME280;62290;59.420;17.842;2022-12-29T01:57:30;99736.75;;;25.93;20.85
14293;BME280;62290;59.420;17.842;2022-12-29T02:00:03;99722.91;;;25.88;20.79
14293;BME280;62290;59.420;17.842;2022-12-29T02:02:38;99730.16;;;25.95;21.11
14293;BME280;62290;59.420;17.842;2022-12-29T02:05:11;99727.97;;;25.99;21.31
14293;BME280;62290;59.420;17.842;2022-12-29T02:07:46;99726.59;;;26.03;21.11
14293;BME280;62290;59.420;17.842;2022-12-29T02:10:18;99723.22;;;26.09;20.76
14293;BME280;62290;59.420;17.842;2022-12-29T02:12:47;99724.56;;;26.13;20.79
14293;BME280;62290;59.420;17.842;2022-12-29T02:15:16;99716.63;;;26.19;20.89
14293;BME280;62290;59.420;17.842;2022-12-29T02:17:57;99718.28;;;26.20;20.99
14293;BME280;62290;59.420;17.842;2022-12-29T02:26:49;99706.94;;;25.78;20.82
14293;BME280;62290;59.420;17.842;2022-12-29T02:29:51;99703.72;;;25.74;21.09
14293;BME280;62290;59.420;17.842;2022-12-29T02:32:32;99700.69;;;25.69;20.82
14293;BME280;62290;59.420;17.842;2022-12-29T02:35:09;99696.63;;;25.65;20.92
14293;BME280;62290;59.420;17.842;2022-12-29T02:37:51;99694.31;;;25.62;21.31
14293;BME280;62290;59.420;17.842;2022-12-29T02:40:32;99698.84;;;25.62;21.31
14293;BME280;62290;59.420;17.842;2022-12-29T02:43:14;99693.13;;;25.57;21.16
14293;BME280;62290;59.420;17.842;2022-12-29T02:45:54;99690.13;;;25.52;21.31
14293;BME280;62290;59.420;17.842;2022-12-29T02:48:31;99697.69;;;25.48;21.13
14293;BME280;62290;59.420;17.842;2022-12-29T02:51:09;99693.16;;;25.49;21.65
14293;BME280;62290;59.420;17.842;2022-12-29T02:53:39;99686.56;;;25.51;21.46
14293;BME280;62290;59.420;17.842;2022-12-29T02:56:24;99676.28;;;25.47;21.36
14293;BME280;62290;59.420;17.842;2022-12-29T02:58:52;99670.06;;;25.46;21.45
14293;BME280;62290;59.420;17.842;2022-12-29T03:01:32;99668.19;;;25.47;21.16
14293;BME280;62290;59.420;17.842;2022-12-29T03:04:23;99659.56;;;25.43;21.36
14293;BME280;62290;59.420;17.842;2022-12-29T03:07:08;99665.81;;;25.44;21.22
14293;BME280;62290;59.420;17.842;2022-12-29T03:09:48;99663.13;;;25.44;21.33
14293;BME280;62290;59.420;17.842;2022-12-29T03:12:26;99676.75;;;25.42;21.64
14293;BME280;62290;59.420;17.842;2022-12-29T03:15:19;99671.88;;;25.38;21.74
14293;BME280;62290;59.420;17.842;2022-12-29T03:18:12;99675.22;;;25.40;21.54
14293;BME280;62290;59.420;17.842;2022-12-29T03:20:50;99671.03;;;25.45;21.58
14293;BME280;62290;59.420;17.842;2022-12-29T03:23:19;99665.50;;;25.47;21.85
14293;BME280;62290;59.420;17.842;2022-12-29T03:25:51;99664.31;;;25.49;21.70
14293;BME280;62290;59.420;17.842;2022-12-29T03:28:23;99661.28;;;25.52;21.85
14293;BME280;62290;59.420;17.842;2022-12-29T03:30:53;99635.84;;;25.47;21.78
14293;BME280;62290;59.420;17.842;2022-12-29T03:33:25;99648.59;;;25.61;21.98
14293;BME280;62290;59.420;17.842;2022-12-29T03:36:01;99642.00;;;25.63;21.48
14293;BME280;62290;59.420;17.842;2022-12-29T03:38:35;99651.63;;;25.66;21.71
14293;BME280;62290;59.420;17.842;2022-12-29T03:41:10;99651.28;;;25.69;21.64
14293;BME280;62290;59.420;17.842;2022-12-29T03:43:39;99639.50;;;25.62;21.98
14293;BME280;62290;59.420;17.842;2022-12-29T03:46:08;99624.66;;;25.58;21.87
14293;BME280;62290;59.420;17.842;2022-12-29T03:48:38;99628.72;;;25.62;21.78
14293;BME280;62290;59.420;17.842;2022-12-29T03:51:09;99625.50;;;25.58;21.82
14293;BME280;62290;59.420;17.842;2022-12-29T03:53:38;99618.78;;;25.54;22.07
14293;BME280;62290;59.420;17.842;2022-12-29T03:56:07;99554.63;;;25.17;21.71
14293;BME280;62290;59.420;17.842;2022-12-29T03:58:35;99598.88;;;25.47;21.76
14293;BME280;62290;59.420;17.842;2022-12-29T04:01:08;99599.72;;;25.48;21.94
14293;BME280;62290;59.420;17.842;2022-12-29T04:03:37;99586.56;;;25.45;21.75
14293;BME280;62290;59.420;17.842;2022-12-29T04:06:06;99584.88;;;25.44;21.88
14293;BME280;62290;59.420;17.842;2022-12-29T04:08:43;99559.66;;;25.29;21.96
14293;BME280;62290;59.420;17.842;2022-12-29T04:11:11;99584.69;;;25.45;21.81
14293;BME280;62290;59.420;17.842;2022-12-29T04:13:41;99585.41;;;25.47;22.03
14293;BME280;62290;59.420;17.842;2022-12-29T04:16:13;99564.69;;;25.32;22.09
14293;BME280;62290;59.420;17.842;2022-12-29T04:18:41;99586.91;;;25.50;22.04
14293;BME280;62290;59.420;17.842;2022-12-29T04:21:09;99584.91;;;25.52;21.93
14293;BME280;62290;59.420;17.842;2022-12-29T04:23:39;99586.06;;;25.57;22.42
14293;BME280;62290;59.420;17.842;2022-12-29T04:26:10;99530.00;;;25.29;22.08
14293;BME280;62290;59.420;17.842;2022-12-29T04:28:50;99562.28;;;25.53;21.95
14293;BME280;62290;59.420;17.842;2022-12-29T04:31:41;99578.97;;;25.64;21.89
14293;BME280;62290;59.420;17.842;2022-12-29T04:34:10;99566.97;;;25.67;21.99
14293;BME280;62290;59.420;17.842;2022-12-29T04:36:38;99558.69;;;25.68;22.03
14293;BME280;62290;59.420;17.842;2022-12-29T04:39:07;99539.53;;;25.55;21.93
14293;BME280;62290;59.420;17.842;2022-12-29T04:41:39;99548.75;;;25.69;22.03
14293;BME280;62290;59.420;17.842;2022-12-29T04:44:11;99559.50;;;25.77;22.33
14293;BME280;62290;59.420;17.842;2022-12-29T04:46:57;99550.72;;;25.83;22.38
14293;BME280;62290;59.420;17.842;2022-12-29T04:49:48;99553.72;;;25.88;21.89
14293;BME280;62290;59.420;17.842;2022-12-29T04:52:34;99549.47;;;25.94;22.33
14293;BME280;62290;59.420;17.842;2022-12-29T04:55:04;99540.84;;;25.98;21.78
14293;BME280;62290;59.420;17.842;2022-12-29T04:57:34;99542.00;;;26.04;22.30
14293;BME280;62290;59.420;17.842;2022-12-29T05:00:03;99533.34;;;26.08;21.89
14293;BME280;62290;59.420;17.842;2022-12-29T05:02:34;99535.56;;;26.05;21.66
14293;BME280;62290;59.420;17.842;2022-12-29T05:05:04;99531.38;;;26.02;21.78
14293;BME280;62290;59.420;17.842;2022-12-29T05:07:34;99535.09;;;26.01;22.07
14293;BME280;62290;59.420;17.842;2022-12-29T05:10:03;99529.69;;;26.01;21.55
14293;BME280;62290;59.420;17.842;2022-12-29T05:12:36;99523.44;;;26.01;21.93
14293;BME280;62290;59.420;17.842;2022-12-29T05:15:07;99514.50;;;26.00;21.64
14293;BME280;62290;59.420;17.842;2022-12-29T05:17:37;99509.97;;;26.01;21.59
14293;BME280;62290;59.420;17.842;2022-12-29T05:20:07;99500.06;;;25.93;21.70
14293;BME280;62290;59.420;17.842;2022-12-29T05:22:36;99516.50;;;26.06;21.47
14293;BME280;62290;59.420;17.842;2022-12-29T05:25:05;99517.06;;;26.02;21.86
14293;BME280;62290;59.420;17.842;2022-12-29T05:27:46;99508.66;;;25.97;22.13
14293;BME280;62290;59.420;17.842;2022-12-29T05:30:23;99512.50;;;25.94;21.79
14293;BME280;62290;59.420;17.842;2022-12-29T05:32:52;99506.94;;;25.96;21.79
14293;BME280;62290;59.420;17.842;2022-12-29T05:35:20;99505.94;;;25.97;22.08
14293;BME280;62290;59.420;17.842;2022-12-29T05:37:48;99499.00;;;25.94;21.88
14293;BME280;62290;59.420;17.842;2022-12-29T05:40:16;99503.75;;;25.92;22.16
14293;BME280;62290;59.420;17.842;2022-12-29T05:42:46;99498.72;;;25.89;21.79
14293;BME280;62290;59.420;17.842;2022-12-29T05:45:32;99492.19;;;25.84;21.80
14293;BME280;62290;59.420;17.842;2022-12-29T05:48:14;99488.28;;;25.86;22.23
14293;BME280;62290;59.420;17.842;2022-12-29T05:51:00;99488.66;;;25.83;22.23
14293;BME280;62290;59.420;17.842;2022-12-29T05:53:46;99481.06;;;25.78;22.41
14293;BME280;62290;59.420;17.842;2022-12-29T05:56:15;99426.75;;;25.51;21.91
14293;BME280;62290;59.420;17.842;2022-12-29T05:58:46;99473.66;;;25.81;21.98
14293;BME280;62290;59.420;17.842;2022-12-29T06:01:15;99478.84;;;25.82;22.16
14293;BME280;62290;59.420;17.842;2022-12-29T06:03:44;99470.22;;;25.87;22.19
14293;BME280;62290;59.420;17.842;2022-12-29T06:06:15;99470.41;;;25.85;22.50
14293;BME280;62290;59.420;17.842;2022-12-29T06:08:43;99469.97;;;25.73;22.29
14293;BME280;62290;59.420;17.842;2022-12-29T06:11:12;99462.91;;;25.72;22.09
14293;BME280;62290;59.420;17.842;2022-12-29T06:13:49;99444.00;;;25.72;22.59
14293;BME280;62290;59.420;17.842;2022-12-29T06:16:17;99458.50;;;25.71;22.21
14293;BME280;62290;59.420;17.842;2022-12-29T06:18:48;99455.66;;;25.73;22.58
14293;BME280;62290;59.420;17.842;2022-12-29T06:21:16;99448.03;;;25.76;22.57
14293;BME280;62290;59.420;17.842;2022-12-29T06:23:45;99437.06;;;25.78;22.58
14293;BME280;62290;59.420;17.842;2022-12-29T06:26:13;99445.16;;;25.78;22.58
14293;BME280;62290;59.420;17.842;2022-12-29T06:28:42;99442.94;;;25.82;22.56
14293;BME280;62290;59.420;17.842;2022-12-29T06:31:11;99438.38;;;25.82;22.08
14293;BME280;62290;59.420;17.842;2022-12-29T06:33:40;99444.63;;;25.83;22.43
14293;BME280;62290;59.420;17.842;2022-12-29T06:36:09;99440.06;;;25.83;22.50
14293;BME280;62290;59.420;17.842;2022-12-29T06:38:37;99438.38;;;25.82;22.48
14293;BME280;62290;59.420;17.842;2022-12-29T06:41:05;99436.34;;;25.84;22.27
14293;BME280;62290;59.420;17.842;2022-12-29T06:43:55;99427.41;;;25.84;22.48
14293;BME280;62290;59.420;17.842;2022-12-29T06:46:37;99420.97;;;25.85;22.60
14293;BME280;62290;59.420;17.842;2022-12-29T06:49:05;99424.53;;;25.85;22.51
14293;BME280;62290;59.420;17.842;2022-12-29T06:51:33;99444.28;;;25.86;22.12
14293;BME280;62290;59.420;17.842;2022-12-29T06:54:01;99437.72;;;25.80;22.22
14293;BME280;62290;59.420;17.842;2022-12-29T06:56:29;99430.16;;;25.75;22.75
14293;BME280;62290;59.420;17.842;2022-12-29T06:58:57;99430.88;;;25.69;22.54
14293;BME280;62290;59.420;17.842;2022-12-29T07:01:26;99430.38;;;25.66;22.56
14293;BME280;62290;59.420;17.842;2022-12-29T07:03:56;99418.44;;;25.60;22.86
14293;BME280;62290;59.420;17.842;2022-12-29T07:06:24;99420.66;;;25.57;22.61
14293;BME280;62290;59.420;17.842;2022-12-29T07:08:52;99422.88;;;25.53;22.62
14293;BME280;62290;59.420;17.842;2022-12-29T07:11:21;99413.13;;;25.52;22.71
14293;BME280;62290;59.420;17.842;2022-12-29T07:13:49;99407.72;;;25.52;22.60
14293;BME280;62290;59.420;17.842;2022-12-29T07:16:17;99411.56;;;25.50;22.64
14293;BME280;62290;59.420;17.842;2022-12-29T07:18:46;99405.19;;;25.51;23.18
14293;BME280;62290;59.420;17.842;2022-12-29T07:21:16;99399.63;;;25.52;22.72
14293;BME280;62290;59.420;17.842;2022-12-29T07:23:44;99390.19;;;25.48;22.80
14293;BME280;62290;59.420;17.842;2022-12-29T07:26:13;99390.19;;;25.48;23.24
14293;BME280;62290;59.420;17.842;2022-12-29T07:28:44;99386.97;;;25.45;23.16
14293;BME280;62290;59.420;17.842;2022-12-29T07:31:14;99380.59;;;25.46;23.35
14293;BME280;62290;59.420;17.842;2022-12-29T07:33:43;99374.88;;;25.41;23.07
14293;BME280;62290;59.420;17.842;2022-12-29T07:36:11;99376.72;;;25.40;23.36
14293;BME280;62290;59.420;17.842;2022-12-29T07:38:42;99369.81;;;25.38;23.17
14293;BME280;62290;59.420;17.842;2022-12-29T07:41:10;99366.78;;;25.41;23.06
14293;BME280;62290;59.420;17.842;2022-12-29T07:43:38;99367.13;;;25.46;22.97
14293;BME280;62290;59.420;17.842;2022-12-29T07:46:23;99365.38;;;25.45;23.39
14293;BME280;62290;59.420;17.842;2022-12-29T07:49:11;99355.31;;;25.47;23.31
14293;BME280;62290;59.420;17.842;2022-12-29T07:51:39;99352.63;;;25.47;23.36
14293;BME280;62290;59.420;17.842;2022-12-29T07:54:09;99343.16;;;25.43;23.03
14293;BME280;62290;59.420;17.842;2022-12-29T07:56:38;99347.88;;;25.49;23.29
14293;BME280;62290;59.420;17.842;2022-12-29T07:59:07;99349.53;;;25.50;23.22
14293;BME280;62290;59.420;17.842;2022-12-29T08:01:34;99349.38;;;25.51;23.22
14293;BME280;62290;59.420;17.842;2022-12-29T08:04:03;99347.03;;;25.48;23.05
14293;BME280;62290;59.420;17.842;2022-12-29T08:06:32;99333.75;;;25.47;23.27
14293;BME280;62290;59.420;17.842;2022-12-29T08:08:59;99338.25;;;25.54;23.14
14293;BME280;62290;59.420;17.842;2022-12-29T08:11:40;99333.19;;;25.51;23.62
14293;BME280;62290;59.420;17.842;2022-12-29T08:14:09;99334.88;;;25.52;23.44
14293;BME280;62290;59.420;17.842;2022-12-29T08:16:37;99326.78;;;25.52;23.35
14293;BME280;62290;59.420;17.842;2022-12-29T08:19:05;99331.16;;;25.53;23.20
14293;BME280;62290;59.420;17.842;2022-12-29T08:21:33;99320.56;;;25.52;23.56
14293;BME280;62290;59.420;17.842;2022-12-29T08:24:02;99318.56;;;25.46;23.27
14293;BME280;62290;59.420;17.842;2022-12-29T08:26:30;99322.13;;;25.38;23.42
14293;BME280;62290;59.420;17.842;2022-12-29T08:28:59;99320.31;;;25.31;23.86
14293;BME280;62290;59.420;17.842;2022-12-29T08:31:27;99317.69;;;25.23;23.99
14293;BME280;62290;59.420;17.842;2022-12-29T08:33:55;99320.72;;;25.20;23.75
14293;BME280;62290;59.420;17.842;2022-12-29T08:36:23;99299.16;;;25.20;24.12
14293;BME280;62290;59.420;17.842;2022-12-29T08:38:51;99298.50;;;25.17;24.10
14293;BME280;62290;59.420;17.842;2022-12-29T08:41:19;99298.19;;;25.12;24.43
14293;BME280;62290;59.420;17.842;2022-12-29T08:43:49;99301.72;;;25.13;24.25
14293;BME280;62290;59.420;17.842;2022-12-29T08:46:19;99298.00;;;25.14;24.56
14293;BME280;62290;59.420;17.842;2022-12-29T08:48:47;99299.19;;;25.11;24.67
14293;BME280;62290;59.420;17.842;2022-12-29T08:51:15;99294.00;;;25.10;24.56
14293;BME280;62290;59.420;17.842;2022-12-29T08:53:50;99288.75;;;25.08;24.63
14293;BME280;62290;59.420;17.842;2022-12-29T08:56:18;99276.31;;;25.07;24.52
14293;BME280;62290;59.420;17.842;2022-12-29T08:58:50;99275.13;;;25.10;24.39
14293;BME280;62290;59.420;17.842;2022-12-29T09:01:21;99266.50;;;25.14;24.59
14293;BME280;62290;59.420;17.842;2022-12-29T09:03:50;99257.75;;;25.12;24.36
14293;BME280;62290;59.420;17.842;2022-12-29T09:06:38;99256.41;;;25.08;24.38
14293;BME280;62290;59.420;17.842;2022-12-29T09:09:06;99253.91;;;25.07;24.36
14293;BME280;62290;59.420;17.842;2022-12-29T09:11:35;99248.72;;;25.05;24.38
14293;BME280;62290;59.420;17.842;2022-12-29T09:14:03;99231.69;;;25.05;24.46
14293;BME280;62290;59.420;17.842;2022-12-29T09:16:33;99226.13;;;25.06;24.71
14293;BME280;62290;59.420;17.842;2022-12-29T09:19:01;99215.22;;;25.00;24.66
14293;BME280;62290;59.420;17.842;2022-12-29T09:21:30;99224.06;;;25.08;24.52
14293;BME280;62290;59.420;17.842;2022-12-29T09:23:58;99223.06;;;25.09;24.55
14293;BME280;62290;59.420;17.842;2022-12-29T09:26:26;99214.97;;;25.09;24.19
14293;BME280;62290;59.420;17.842;2022-12-29T09:28:54;99220.88;;;25.13;24.15
14293;BME280;62290;59.420;17.842;2022-12-29T09:31:23;99215.94;;;25.16;24.61
14293;BME280;62290;59.420;17.842;2022-12-29T09:33:53;99214.09;;;25.17;24.07
14293;BME280;62290;59.420;17.842;2022-12-29T09:36:21;99204.50;;;25.14;24.33
14293;BME280;62290;59.420;17.842;2022-12-29T09:38:49;99203.56;;;25.07;24.08
14293;BME280;62290;59.420;17.842;2022-12-29T09:41:22;99200.13;;;25.13;24.42
14293;BME280;62290;59.420;17.842;2022-12-29T09:44:07;99190.38;;;25.12;24.17
14293;BME280;62290;59.420;17.842;2022-12-29T09:46:42;99193.63;;;25.08;24.20
14293;BME280;62290;59.420;17.842;2022-12-29T09:49:20;99184.69;;;25.07;24.10
14293;BME280;62290;59.420;17.842;2022-12-29T09:51:52;99168.03;;;25.04;24.35
14293;BME280;62290;59.420;17.842;2022-12-29T09:54:31;99169.72;;;25.05;24.30
14293;BME280;62290;59.420;17.842;2022-12-29T09:57:02;99153.09;;;24.93;24.24
14293;BME280;62290;59.420;17.842;2022-12-29T09:59:38;99160.94;;;25.03;24.24
14293;BME280;62290;59.420;17.842;2022-12-29T10:02:20;99160.28;;;25.01;24.22
14293;BME280;62290;59.420;17.842;2022-12-29T10:04:52;99147.66;;;25.01;24.45
14293;BME280;62290;59.420;17.842;2022-12-29T10:07:36;99146.81;;;25.01;24.03
14293;BME280;62290;59.420;17.842;2022-12-29T10:10:19;99149.34;;;25.02;24.41
14293;BME280;62290;59.420;17.842;2022-12-29T10:12:57;99136.03;;;25.01;24.48
14293;BME280;62290;59.420;17.842;2022-12-29T10:15:40;99127.09;;;25.00;24.54
14293;BME280;62290;59.420;17.842;2022-12-29T10:18:23;99113.03;;;24.90;24.17
14293;BME280;62290;59.420;17.842;2022-12-29T10:21:00;99120.06;;;24.99;24.27
14293;BME280;62290;59.420;17.842;2022-12-29T10:23:34;99072.25;;;24.71;24.56
14293;BME280;62290;59.420;17.842;2022-12-29T10:26:04;99116.72;;;24.97;24.59
14293;BME280;62290;59.420;17.842;2022-12-29T10:28:39;99103.88;;;24.99;24.33
14293;BME280;62290;59.420;17.842;2022-12-29T10:31:12;99071.31;;;24.86;24.44
14293;BME280;62290;59.420;17.842;2022-12-29T10:33:43;99102.19;;;24.98;24.34
14293;BME280;62290;59.420;17.842;2022-12-29T10:36:18;99099.16;;;25.01;24.50
14293;BME280;62290;59.420;17.842;2022-12-29T10:38:54;99093.41;;;25.04;24.37
14293;BME280;62290;59.420;17.842;2022-12-29T10:41:32;99082.63;;;25.04;24.49
14293;BME280;62290;59.420;17.842;2022-12-29T10:44:02;99078.91;;;25.05;24.54
14293;BME280;62290;59.420;17.842;2022-12-29T10:46:33;99067.94;;;25.07;24.18
14293;BME280;62290;59.420;17.842;2022-12-29T10:49:03;99068.44;;;25.10;24.25
14293;BME280;62290;59.420;17.842;2022-12-29T10:51:36;99059.13;;;25.13;24.57
14293;BME280;62290;59.420;17.842;2022-12-29T10:54:11;99062.47;;;25.15;24.27
14293;BME280;62290;59.420;17.842;2022-12-29T10:56:44;99043.31;;;25.10;24.36
14293;BME280;62290;59.420;17.842;2022-12-29T10:59:17;99041.91;;;25.14;24.19
14293;BME280;62290;59.420;17.842;2022-12-29T11:01:54;99035.88;;;25.12;24.31
14293;BME280;62290;59.420;17.842;2022-12-29T11:04:34;99030.69;;;25.10;24.38
14293;BME280;62290;59.420;17.842;2022-12-29T11:07:07;99037.09;;;25.09;24.39
14293;BME280;62290;59.420;17.842;2022-12-29T11:09:43;99028.34;;;25.07;24.43
14293;BME280;62290;59.420;17.842;2022-12-29T11:12:20;99029.84;;;25.10;24.30
14293;BME280;62290;59.420;17.842;2022-12-29T11:15:02;99028.34;;;25.07;24.23
14293;BME280;62290;59.420;17.842;2022-12-29T11:17:43;99019.63;;;25.05;24.30
14293;BME280;62290;59.420;17.842;2022-12-29T11:20:27;99025.00;;;25.05;24.68
14293;BME280;62290;59.420;17.842;2022-12-29T11:22:56;99011.91;;;25.02;24.54
14293;BME280;62290;59.420;17.842;2022-12-29T11:25:24;99018.94;;;25.03;25.05
14293;BME280;62290;59.420;17.842;2022-12-29T11:27:57;99018.41;;;25.08;24.71
14293;BME280;62290;59.420;17.842;2022-12-29T11:30:28;98999.34;;;25.09;25.16
14293;BME280;62290;59.420;17.842;2022-12-29T11:32:57;99010.34;;;25.08;24.88
14293;BME280;62290;59.420;17.842;2022-12-29T11:35:34;99000.56;;;25.07;25.23
14293;BME280;62290;59.420;17.842;2022-12-29T11:38:18;98982.25;;;25.02;25.22
14293;BME280;62290;59.420;17.842;2022-12-29T11:40:47;98983.81;;;24.97;25.11
14293;BME280;62290;59.420;17.842;2022-12-29T11:43:22;98967.00;;;24.95;25.21
14293;BME280;62290;59.420;17.842;2022-12-29T11:45:52;98968.75;;;24.88;25.15
14293;BME280;62290;59.420;17.842;2022-12-29T11:48:24;98963.91;;;24.83;25.61
14293;BME280;62290;59.420;17.842;2022-12-29T11:50:57;98954.53;;;24.79;25.33
14293;BME280;62290;59.420;17.842;2022-12-29T11:53:36;98962.09;;;24.76;25.68
14293;BME280;62290;59.420;17.842;2022-12-29T11:56:08;98952.69;;;24.72;25.61
14293;BME280;62290;59.420;17.842;2022-12-29T11:58:38;98941.47;;;24.68;25.62
14293;BME280;62290;59.420;17.842;2022-12-29T12:01:10;98933.19;;;24.70;26.01
14293;BME280;62290;59.420;17.842;2022-12-29T12:03:45;98936.09;;;24.68;25.89
14293;BME280;62290;59.420;17.842;2022-12-29T12:06:19;98921.59;;;24.69;25.76
14293;BME280;62290;59.420;17.842;2022-12-29T12:08:55;98926.97;;;24.69;25.88
14293;BME280;62290;59.420;17.842;2022-12-29T12:11:26;98920.78;;;24.69;25.96
14293;BME280;62290;59.420;17.842;2022-12-29T12:14:06;98927.16;;;24.68;25.91
14293;BME280;62290;59.420;17.842;2022-12-29T12:17:03;98924.84;;;24.65;25.76
14293;BME280;62290;59.420;17.842;2022-12-29T12:19:34;98901.22;;;24.52;26.06
14293;BME280;62290;59.420;17.842;2022-12-29T12:22:10;98923.81;;;24.66;26.15
14293;BME280;62290;59.420;17.842;2022-12-29T12:24:47;98919.44;;;24.65;26.24
14293;BME280;62290;59.420;17.842;2022-12-29T12:27:19;98866.94;;;24.31;26.01
14293;BME280;62290;59.420;17.842;2022-12-29T12:29:55;98911.66;;;24.70;26.07
14293;BME280;62290;59.420;17.842;2022-12-29T12:32:29;98909.91;;;24.77;26.08
14293;BME280;62290;59.420;17.842;2022-12-29T12:35:04;98917.47;;;24.81;26.44
14293;BME280;62290;59.420;17.842;2022-12-29T12:37:51;98914.31;;;24.92;26.17
14293;BME280;62290;59.420;17.842;2022-12-29T12:40:46;98914.41;;;24.99;26.43
14293;BME280;62290;59.420;17.842;2022-12-29T12:43:43;98913.84;;;25.03;26.43
14293;BME280;62290;59.420;17.842;2022-12-29T12:46:28;98907.44;;;25.04;26.28
14293;BME280;62290;59.420;17.842;2022-12-29T12:49:23;98902.22;;;25.03;26.33
14293;BME280;62290;59.420;17.842;2022-12-29T12:52:07;98899.72;;;25.01;26.47
14293;BME280;62290;59.420;17.842;2022-12-29T12:54:51;98904.47;;;24.99;26.42
14293;BME280;62290;59.420;17.842;2022-12-29T12:57:31;98897.31;;;25.06;26.36
14293;BME280;62290;59.420;17.842;2022-12-29T13:00:08;98883.25;;;25.11;26.47
14293;BME280;62290;59.420;17.842;2022-12-29T13:02:46;98883.53;;;25.16;26.14
14293;BME280;62290;59.420;17.842;2022-12-29T13:05:36;98879.34;;;25.13;26.48
14293;BME280;62290;59.420;17.842;2022-12-29T13:08:25;98862.38;;;25.13;26.52
14293;BME280;62290;59.420;17.842;2022-12-29T13:11:06;98875.84;;;25.13;26.20
14293;BME280;62290;59.420;17.842;2022-12-29T13:13:51;98870.19;;;25.08;26.55
14293;BME280;62290;59.420;17.842;2022-12-29T13:16:28;98865.53;;;25.02;27.34
14293;BME280;62290;59.420;17.842;2022-12-29T13:19:03;98858.66;;;24.99;27.22
14293;BME280;62290;59.420;17.842;2022-12-29T13:21:48;98850.56;;;24.99;27.43
14293;BME280;62290;59.420;17.842;2022-12-29T13:24:36;98863.56;;;24.96;28.34
14293;BME280;62290;59.420;17.842;2022-12-29T13:27:13;98856.91;;;24.92;28.29
14293;BME280;62290;59.420;17.842;2022-12-29T13:29:52;98848.81;;;24.92;28.69
14293;BME280;62290;59.420;17.842;2022-12-29T13:32:32;98848.97;;;24.90;28.41